sensor_id;sensor_type;location;lat;lon;timestamp;P1;durP1;ratioP1;P2;durP2;ratioP2
21761;SDS011;11203;50.870;20.682;2023-04-15T00:00:29;22.23;;;18.40;;
21761;SDS011;11203;50.870;20.682;2023-04-15T00:03:13;19.55;;;17.00;;
21761;SDS011;11203;50.870;20.682;2023-04-15T00:05:39;19.95;;;16.95;;
21761;SDS011;11203;50.870;20.682;2023-04-15T00:08:05;18.08;;;15.93;;
21761;SDS011;11203;50.870;20.682;2023-04-15T00:10:32;19.65;;;17.40;;
21761;SDS011;11203;50.870;20.682;2023-04-15T00:12:58;19.70;;;17.15;;
21761;SDS011;11203;50.870;20.682;2023-04-15T00:15:25;18.40;;;15.52;;
21761;SDS011;11203;50.870;20.682;2023-04-15T00:17:51;17.48;;;15.18;;
21761;SDS011;11203;50.870;20.682;2023-04-15T00:20:17;17.80;;;15.93;;
21761;SDS011;11203;50.870;20.682;2023-04-15T00:22:44;16.88;;;14.65;;
21761;SDS011;11203;50.870;20.682;2023-04-15T00:25:10;17.23;;;15.35;;
21761;SDS011;11203;50.870;20.682;2023-04-15T00:27:37;16.73;;;15.07;;
21761;SDS011;11203;50.870;20.682;2023-04-15T00:30:03;17.15;;;14.50;;
21761;SDS011;11203;50.870;20.682;2023-04-15T00:32:30;17.08;;;15.00;;
21761;SDS011;11203;50.870;20.682;2023-04-15T00:34:56;16.83;;;14.60;;
21761;SDS011;11203;50.870;20.682;2023-04-15T00:37:22;15.98;;;14.27;;
21761;SDS011;11203;50.870;20.682;2023-04-15T00:39:48;16.92;;;15.10;;
21761;SDS011;11203;50.870;20.682;2023-04-15T00:42:14;16.33;;;14.60;;
21761;SDS011;11203;50.870;20.682;2023-04-15T00:44:42;16.52;;;14.52;;
21761;SDS011;11203;50.870;20.682;2023-04-15T00:47:07;16.10;;;14.45;;
21761;SDS011;11203;50.870;20.682;2023-04-15T00:49:35;16.77;;;14.30;;
21761;SDS011;11203;50.870;20.682;2023-04-15T00:52:02;16.20;;;14.60;;
21761;SDS011;11203;50.870;20.682;2023-04-15T00:54:30;16.20;;;14.32;;
21761;SDS011;11203;50.870;20.682;2023-04-15T00:56:56;16.15;;;14.55;;
21761;SDS011;11203;50.870;20.682;2023-04-15T00:59:23;15.68;;;13.65;;
21761;SDS011;11203;50.870;20.682;2023-04-15T01:01:49;17.13;;;14.20;;
21761;SDS011;11203;50.870;20.682;2023-04-15T01:04:16;15.65;;;13.38;;
21761;SDS011;11203;50.870;20.682;2023-04-15T01:06:42;16.45;;;13.60;;
21761;SDS011;11203;50.870;20.682;2023-04-15T01:09:09;15.13;;;13.63;;
21761;SDS011;11203;50.870;20.682;2023-04-15T01:11:36;15.23;;;13.00;;
21761;SDS011;11203;50.870;20.682;2023-04-15T01:14:02;15.10;;;13.48;;
21761;SDS011;11203;50.870;20.682;2023-04-15T01:16:29;15.25;;;13.65;;
21761;SDS011;11203;50.870;20.682;2023-04-15T01:18:55;17.20;;;13.95;;
21761;SDS011;11203;50.870;20.682;2023-04-15T01:21:22;16.02;;;14.02;;
21761;SDS011;11203;50.870;20.682;2023-04-15T01:23:48;16.45;;;13.73;;
21761;SDS011;11203;50.870;20.682;2023-04-15T01:26:17;19.60;;;13.77;;
21761;SDS011;11203;50.870;20.682;2023-04-15T01:28:44;15.35;;;13.75;;
21761;SDS011;11203;50.870;20.682;2023-04-15T01:31:11;16.35;;;13.60;;
21761;SDS011;11203;50.870;20.682;2023-04-15T01:33:39;15.32;;;13.73;;
21761;SDS011;11203;50.870;20.682;2023-04-15T01:36:07;15.02;;;13.45;;
21761;SDS011;11203;50.870;20.682;2023-04-15T01:38:35;15.35;;;13.52;;
21761;SDS011;11203;50.870;20.682;2023-04-15T01:41:02;15.90;;;13.32;;
21761;SDS011;11203;50.870;20.682;2023-04-15T01:43:29;15.00;;;13.40;;
21761;SDS011;11203;50.870;20.682;2023-04-15T01:45:55;14.82;;;13.30;;
21761;SDS011;11203;50.870;20.682;2023-04-15T01:48:21;15.50;;;13.82;;
21761;SDS011;11203;50.870;20.682;2023-04-15T01:50:47;14.63;;;13.10;;
21761;SDS011;11203;50.870;20.682;2023-04-15T01:53:14;15.52;;;13.02;;
21761;SDS011;11203;50.870;20.682;2023-04-15T01:55:41;14.32;;;12.93;;
21761;SDS011;11203;50.870;20.682;2023-04-15T01:58:07;13.30;;;12.00;;
21761;SDS011;11203;50.870;20.682;2023-04-15T02:00:34;14.68;;;13.13;;
21761;SDS011;11203;50.870;20.682;2023-04-15T02:03:00;13.68;;;12.27;;
21761;SDS011;11203;50.870;20.682;2023-04-15T02:05:26;17.23;;;11.90;;
21761;SDS011;11203;50.870;20.682;2023-04-15T02:07:52;14.20;;;12.70;;
21761;SDS011;11203;50.870;20.682;2023-04-15T02:10:18;13.18;;;11.95;;
21761;SDS011;11203;50.870;20.682;2023-04-15T02:12:44;14.95;;;11.65;;
21761;SDS011;11203;50.870;20.682;2023-04-15T02:15:10;12.45;;;11.23;;
21761;SDS011;11203;50.870;20.682;2023-04-15T02:17:36;12.85;;;11.45;;
21761;SDS011;11203;50.870;20.682;2023-04-15T02:20:03;12.00;;;10.70;;
21761;SDS011;11203;50.870;20.682;2023-04-15T02:22:33;12.57;;;11.35;;
21761;SDS011;11203;50.870;20.682;2023-04-15T02:24:59;12.55;;;11.13;;
21761;SDS011;11203;50.870;20.682;2023-04-15T02:27:25;11.98;;;10.77;;
21761;SDS011;11203;50.870;20.682;2023-04-15T02:29:54;13.23;;;11.93;;
21761;SDS011;11203;50.870;20.682;2023-04-15T02:32:20;14.80;;;11.93;;
21761;SDS011;11203;50.870;20.682;2023-04-15T02:34:48;12.98;;;11.55;;
21761;SDS011;11203;50.870;20.682;2023-04-15T02:37:15;12.00;;;10.73;;
21761;SDS011;11203;50.870;20.682;2023-04-15T02:39:43;12.20;;;10.98;;
21761;SDS011;11203;50.870;20.682;2023-04-15T02:42:09;12.38;;;11.18;;
21761;SDS011;11203;50.870;20.682;2023-04-15T02:44:35;14.23;;;11.40;;
21761;SDS011;11203;50.870;20.682;2023-04-15T02:47:02;11.90;;;10.00;;
21761;SDS011;11203;50.870;20.682;2023-04-15T02:49:29;12.15;;;10.85;;
21761;SDS011;11203;50.870;20.682;2023-04-15T02:51:55;13.48;;;11.85;;
21761;SDS011;11203;50.870;20.682;2023-04-15T02:54:22;12.38;;;11.07;;
21761;SDS011;11203;50.870;20.682;2023-04-15T02:56:49;12.50;;;11.25;;
21761;SDS011;11203;50.870;20.682;2023-04-15T02:59:15;12.65;;;11.35;;
21761;SDS011;11203;50.870;20.682;2023-04-15T03:01:41;12.15;;;10.85;;
21761;SDS011;11203;50.870;20.682;2023-04-15T03:04:07;12.15;;;10.85;;
21761;SDS011;11203;50.870;20.682;2023-04-15T03:06:34;13.77;;;11.75;;
21761;SDS011;11203;50.870;20.682;2023-04-15T03:09:00;12.57;;;11.27;;
21761;SDS011;11203;50.870;20.682;2023-04-15T03:11:29;12.95;;;11.60;;
21761;SDS011;11203;50.870;20.682;2023-04-15T03:13:56;13.45;;;12.05;;
21761;SDS011;11203;50.870;20.682;2023-04-15T03:16:23;14.45;;;10.82;;
21761;SDS011;11203;50.870;20.682;2023-04-15T03:18:50;13.77;;;11.77;;
21761;SDS011;11203;50.870;20.682;2023-04-15T03:21:16;12.93;;;11.65;;
21761;SDS011;11203;50.870;20.682;2023-04-15T03:23:43;13.40;;;11.93;;
21761;SDS011;11203;50.870;20.682;2023-04-15T03:26:09;13.13;;;11.77;;
21761;SDS011;11203;50.870;20.682;2023-04-15T03:28:54;12.25;;;11.05;;
21761;SDS011;11203;50.870;20.682;2023-04-15T03:31:21;12.13;;;10.90;;
21761;SDS011;11203;50.870;20.682;2023-04-15T03:33:47;10.88;;;9.80;;
21761;SDS011;11203;50.870;20.682;2023-04-15T03:36:13;11.93;;;10.57;;
21761;SDS011;11203;50.870;20.682;2023-04-15T03:38:40;12.30;;;11.02;;
21761;SDS011;11203;50.870;20.682;2023-04-15T03:41:06;12.55;;;11.25;;
21761;SDS011;11203;50.870;20.682;2023-04-15T03:43:34;13.40;;;10.75;;
21761;SDS011;11203;50.870;20.682;2023-04-15T03:46:00;13.75;;;12.18;;
21761;SDS011;11203;50.870;20.682;2023-04-15T03:48:27;17.52;;;10.88;;
21761;SDS011;11203;50.870;20.682;2023-04-15T03:50:53;11.65;;;10.45;;
21761;SDS011;11203;50.870;20.682;2023-04-15T03:53:20;15.48;;;12.85;;
21761;SDS011;11203;50.870;20.682;2023-04-15T03:55:46;14.73;;;13.00;;
21761;SDS011;11203;50.870;20.682;2023-04-15T03:58:12;12.02;;;10.68;;
21761;SDS011;11203;50.870;20.682;2023-04-15T04:00:39;12.43;;;11.13;;
21761;SDS011;11203;50.870;20.682;2023-04-15T04:03:05;12.15;;;10.82;;
21761;SDS011;11203;50.870;20.682;2023-04-15T04:05:32;12.95;;;11.73;;
21761;SDS011;11203;50.870;20.682;2023-04-15T04:08:01;12.85;;;11.52;;
21761;SDS011;11203;50.870;20.682;2023-04-15T04:10:27;16.85;;;11.65;;
21761;SDS011;11203;50.870;20.682;2023-04-15T04:12:53;13.63;;;12.00;;
21761;SDS011;11203;50.870;20.682;2023-04-15T04:15:20;16.30;;;12.88;;
21761;SDS011;11203;50.870;20.682;2023-04-15T04:17:46;14.82;;;12.48;;
21761;SDS011;11203;50.870;20.682;2023-04-15T04:20:13;13.27;;;11.50;;
21761;SDS011;11203;50.870;20.682;2023-04-15T04:22:39;14.23;;;12.60;;
21761;SDS011;11203;50.870;20.682;2023-04-15T04:25:06;14.68;;;12.43;;
21761;SDS011;11203;50.870;20.682;2023-04-15T04:27:34;14.45;;;12.85;;
21761;SDS011;11203;50.870;20.682;2023-04-15T04:30:00;14.15;;;12.65;;
21761;SDS011;11203;50.870;20.682;2023-04-15T04:32:26;14.05;;;12.00;;
21761;SDS011;11203;50.870;20.682;2023-04-15T04:34:53;13.80;;;12.35;;
21761;SDS011;11203;50.870;20.682;2023-04-15T04:37:21;17.02;;;11.85;;
21761;SDS011;11203;50.870;20.682;2023-04-15T04:39:48;13.57;;;11.48;;
21761;SDS011;11203;50.870;20.682;2023-04-15T04:42:13;14.70;;;12.35;;
21761;SDS011;11203;50.870;20.682;2023-04-15T04:44:40;12.45;;;11.15;;
21761;SDS011;11203;50.870;20.682;2023-04-15T04:47:06;11.63;;;10.43;;
21761;SDS011;11203;50.870;20.682;2023-04-15T04:49:33;11.52;;;10.38;;
21761;SDS011;11203;50.870;20.682;2023-04-15T04:51:58;12.75;;;10.98;;
21761;SDS011;11203;50.870;20.682;2023-04-15T04:54:25;11.18;;;9.95;;
21761;SDS011;11203;50.870;20.682;2023-04-15T04:56:52;9.88;;;8.80;;
21761;SDS011;11203;50.870;20.682;2023-04-15T04:59:18;11.02;;;9.85;;
21761;SDS011;11203;50.870;20.682;2023-04-15T05:01:44;12.38;;;10.52;;
21761;SDS011;11203;50.870;20.682;2023-04-15T05:04:11;11.93;;;10.30;;
21761;SDS011;11203;50.870;20.682;2023-04-15T05:06:36;12.73;;;11.43;;
21761;SDS011;11203;50.870;20.682;2023-04-15T05:09:03;9.15;;;8.25;;
21761;SDS011;11203;50.870;20.682;2023-04-15T05:11:29;8.02;;;7.15;;
21761;SDS011;11203;50.870;20.682;2023-04-15T05:13:55;7.88;;;7.07;;
21761;SDS011;11203;50.870;20.682;2023-04-15T05:16:22;7.32;;;6.43;;
21761;SDS011;11203;50.870;20.682;2023-04-15T05:18:50;6.80;;;5.75;;
21761;SDS011;11203;50.870;20.682;2023-04-15T05:21:16;8.23;;;6.68;;
21761;SDS011;11203;50.870;20.682;2023-04-15T05:23:42;6.72;;;5.30;;
21761;SDS011;11203;50.870;20.682;2023-04-15T05:26:08;7.13;;;5.07;;
21761;SDS011;11203;50.870;20.682;2023-04-15T05:28:34;6.43;;;5.82;;
21761;SDS011;11203;50.870;20.682;2023-04-15T05:31:00;6.43;;;5.82;;
21761;SDS011;11203;50.870;20.682;2023-04-15T05:33:26;7.32;;;5.47;;
21761;SDS011;11203;50.870;20.682;2023-04-15T05:35:52;8.38;;;5.28;;
21761;SDS011;11203;50.870;20.682;2023-04-15T05:38:19;7.97;;;5.55;;
21761;SDS011;11203;50.870;20.682;2023-04-15T05:40:44;5.30;;;4.80;;
21761;SDS011;11203;50.870;20.682;2023-04-15T05:43:11;7.03;;;6.32;;
21761;SDS011;11203;50.870;20.682;2023-04-15T05:45:37;6.95;;;5.30;;
21761;SDS011;11203;50.870;20.682;2023-04-15T05:48:03;6.38;;;5.03;;
21761;SDS011;11203;50.870;20.682;2023-04-15T05:50:29;10.07;;;4.57;;
21761;SDS011;11203;50.870;20.682;2023-04-15T05:52:55;6.10;;;4.60;;
21761;SDS011;11203;50.870;20.682;2023-04-15T05:55:22;6.45;;;4.50;;
21761;SDS011;11203;50.870;20.682;2023-04-15T05:57:48;4.70;;;4.22;;
21761;SDS011;11203;50.870;20.682;2023-04-15T06:00:14;5.90;;;4.50;;
21761;SDS011;11203;50.870;20.682;2023-04-15T06:02:40;7.00;;;4.90;;
21761;SDS011;11203;50.870;20.682;2023-04-15T06:05:06;5.70;;;4.70;;
21761;SDS011;11203;50.870;20.682;2023-04-15T06:07:34;4.65;;;4.25;;
21761;SDS011;11203;50.870;20.682;2023-04-15T06:10:02;4.30;;;3.92;;
21761;SDS011;11203;50.870;20.682;2023-04-15T06:12:29;4.65;;;4.15;;
21761;SDS011;11203;50.870;20.682;2023-04-15T06:14:56;4.38;;;3.95;;
21761;SDS011;11203;50.870;20.682;2023-04-15T06:17:22;4.10;;;3.58;;
21761;SDS011;11203;50.870;20.682;2023-04-15T06:19:48;4.38;;;3.90;;
21761;SDS011;11203;50.870;20.682;2023-04-15T06:22:22;5.00;;;4.50;;
21761;SDS011;11203;50.870;20.682;2023-04-15T06:24:49;4.35;;;3.67;;
21761;SDS011;11203;50.870;20.682;2023-04-15T06:27:16;22.90;;;15.75;;
21761;SDS011;11203;50.870;20.682;2023-04-15T06:29:42;5.72;;;4.07;;
21761;SDS011;11203;50.870;20.682;2023-04-15T06:32:08;6.45;;;4.00;;
21761;SDS011;11203;50.870;20.682;2023-04-15T06:34:35;4.82;;;4.40;;
21761;SDS011;11203;50.870;20.682;2023-04-15T06:37:01;5.57;;;4.13;;
21761;SDS011;11203;50.870;20.682;2023-04-15T06:39:27;4.18;;;3.78;;
21761;SDS011;11203;50.870;20.682;2023-04-15T06:41:53;4.57;;;3.83;;
21761;SDS011;11203;50.870;20.682;2023-04-15T06:44:20;13.82;;;9.05;;
21761;SDS011;11203;50.870;20.682;2023-04-15T06:46:46;8.43;;;4.10;;
21761;SDS011;11203;50.870;20.682;2023-04-15T06:49:12;6.40;;;4.20;;
21761;SDS011;11203;50.870;20.682;2023-04-15T06:51:38;6.30;;;3.67;;
21761;SDS011;11203;50.870;20.682;2023-04-15T06:54:04;5.22;;;3.67;;
21761;SDS011;11203;50.870;20.682;2023-04-15T06:56:31;4.93;;;3.50;;
21761;SDS011;11203;50.870;20.682;2023-04-15T06:58:57;4.10;;;3.20;;
21761;SDS011;11203;50.870;20.682;2023-04-15T07:01:24;6.55;;;3.30;;
21761;SDS011;11203;50.870;20.682;2023-04-15T07:03:50;5.28;;;3.78;;
21761;SDS011;11203;50.870;20.682;2023-04-15T07:06:19;5.18;;;3.60;;
21761;SDS011;11203;50.870;20.682;2023-04-15T07:08:46;4.00;;;3.10;;
21761;SDS011;11203;50.870;20.682;2023-04-15T07:11:13;6.70;;;4.20;;
21761;SDS011;11203;50.870;20.682;2023-04-15T07:13:39;10.35;;;6.28;;
21761;SDS011;11203;50.870;20.682;2023-04-15T07:16:05;7.63;;;4.45;;
21761;SDS011;11203;50.870;20.682;2023-04-15T07:18:31;6.43;;;5.47;;
21761;SDS011;11203;50.870;20.682;2023-04-15T07:20:58;7.32;;;6.38;;
21761;SDS011;11203;50.870;20.682;2023-04-15T07:23:24;10.25;;;8.10;;
21761;SDS011;11203;50.870;20.682;2023-04-15T07:25:50;5.97;;;5.05;;
21761;SDS011;11203;50.870;20.682;2023-04-15T07:28:16;6.60;;;6.00;;
21761;SDS011;11203;50.870;20.682;2023-04-15T07:30:42;3.95;;;3.55;;
21761;SDS011;11203;50.870;20.682;2023-04-15T07:33:08;5.80;;;3.10;;
21761;SDS011;11203;50.870;20.682;2023-04-15T07:35:35;5.28;;;3.65;;
21761;SDS011;11203;50.870;20.682;2023-04-15T07:38:01;4.40;;;3.38;;
21761;SDS011;11203;50.870;20.682;2023-04-15T07:40:27;10.95;;;7.88;;
21761;SDS011;11203;50.870;20.682;2023-04-15T07:42:53;3.88;;;2.90;;
21761;SDS011;11203;50.870;20.682;2023-04-15T07:45:21;7.05;;;5.93;;
21761;SDS011;11203;50.870;20.682;2023-04-15T07:47:47;20.52;;;18.33;;
21761;SDS011;11203;50.870;20.682;2023-04-15T07:50:15;10.07;;;8.95;;
21761;SDS011;11203;50.870;20.682;2023-04-15T07:52:42;12.95;;;7.93;;
21761;SDS011;11203;50.870;20.682;2023-04-15T07:55:08;18.08;;;16.17;;
21761;SDS011;11203;50.870;20.682;2023-04-15T07:57:35;10.88;;;6.35;;
21761;SDS011;11203;50.870;20.682;2023-04-15T08:00:02;3.08;;;2.78;;
21761;SDS011;11203;50.870;20.682;2023-04-15T08:02:30;5.07;;;3.50;;
21761;SDS011;11203;50.870;20.682;2023-04-15T08:04:56;2.92;;;2.70;;
21761;SDS011;11203;50.870;20.682;2023-04-15T08:07:25;4.50;;;2.80;;
21761;SDS011;11203;50.870;20.682;2023-04-15T08:09:51;6.13;;;4.57;;
21761;SDS011;11203;50.870;20.682;2023-04-15T08:12:17;2.65;;;2.15;;
21761;SDS011;11203;50.870;20.682;2023-04-15T08:14:43;19.45;;;17.88;;
21761;SDS011;11203;50.870;20.682;2023-04-15T08:17:10;37.10;;;33.15;;
21761;SDS011;11203;50.870;20.682;2023-04-15T08:19:36;58.42;;;52.45;;
21761;SDS011;11203;50.870;20.682;2023-04-15T08:22:02;11.70;;;10.23;;
21761;SDS011;11203;50.870;20.682;2023-04-15T08:24:29;5.65;;;3.40;;
21761;SDS011;11203;50.870;20.682;2023-04-15T08:26:55;8.38;;;6.88;;
21761;SDS011;11203;50.870;20.682;2023-04-15T08:29:22;22.00;;;19.35;;
21761;SDS011;11203;50.870;20.682;2023-04-15T08:31:48;20.90;;;18.90;;
21761;SDS011;11203;50.870;20.682;2023-04-15T08:34:14;23.65;;;20.33;;
21761;SDS011;11203;50.870;20.682;2023-04-15T08:36:41;3.35;;;2.90;;
21761;SDS011;11203;50.870;20.682;2023-04-15T08:39:07;6.32;;;4.90;;
21761;SDS011;11203;50.870;20.682;2023-04-15T08:41:37;4.75;;;4.15;;
21761;SDS011;11203;50.870;20.682;2023-04-15T08:44:06;4.22;;;3.25;;
21761;SDS011;11203;50.870;20.682;2023-04-15T08:46:32;6.15;;;5.55;;
21761;SDS011;11203;50.870;20.682;2023-04-15T08:49:04;7.22;;;5.38;;
21761;SDS011;11203;50.870;20.682;2023-04-15T08:51:35;3.05;;;2.60;;
21761;SDS011;11203;50.870;20.682;2023-04-15T08:54:04;2.63;;;2.10;;
21761;SDS011;11203;50.870;20.682;2023-04-15T08:56:30;2.80;;;2.40;;
21761;SDS011;11203;50.870;20.682;2023-04-15T08:58:57;13.30;;;9.98;;
21761;SDS011;11203;50.870;20.682;2023-04-15T09:01:24;9.50;;;7.07;;
21761;SDS011;11203;50.870;20.682;2023-04-15T09:03:51;11.07;;;7.53;;
21761;SDS011;11203;50.870;20.682;2023-04-15T09:06:21;3.60;;;2.63;;
21761;SDS011;11203;50.870;20.682;2023-04-15T09:08:48;5.35;;;3.63;;
21761;SDS011;11203;50.870;20.682;2023-04-15T09:11:16;6.57;;;3.90;;
21761;SDS011;11203;50.870;20.682;2023-04-15T09:13:42;5.32;;;3.70;;
21761;SDS011;11203;50.870;20.682;2023-04-15T09:16:08;4.97;;;2.75;;
21761;SDS011;11203;50.870;20.682;2023-04-15T09:18:35;4.28;;;2.85;;
21761;SDS011;11203;50.870;20.682;2023-04-15T09:21:12;5.50;;;2.92;;
21761;SDS011;11203;50.870;20.682;2023-04-15T09:23:52;3.47;;;2.28;;
21761;SDS011;11203;50.870;20.682;2023-04-15T09:29:05;4.07;;;3.08;;
21761;SDS011;11203;50.870;20.682;2023-04-15T09:31:37;5.45;;;4.00;;
21761;SDS011;11203;50.870;20.682;2023-04-15T09:34:05;7.13;;;4.32;;
21761;SDS011;11203;50.870;20.682;2023-04-15T09:39:11;6.63;;;4.05;;
21761;SDS011;11203;50.870;20.682;2023-04-15T09:41:38;2.90;;;2.10;;
21761;SDS011;11203;50.870;20.682;2023-04-15T09:44:06;8.07;;;3.50;;
21761;SDS011;11203;50.870;20.682;2023-04-15T09:46:47;4.43;;;2.60;;
21761;SDS011;11203;50.870;20.682;2023-04-15T09:49:13;4.03;;;2.38;;
21761;SDS011;11203;50.870;20.682;2023-04-15T09:51:40;2.20;;;2.00;;
21761;SDS011;11203;50.870;20.682;2023-04-15T09:54:06;3.20;;;2.30;;
21761;SDS011;11203;50.870;20.682;2023-04-15T09:56:36;3.58;;;2.60;;
21761;SDS011;11203;50.870;20.682;2023-04-15T09:59:06;3.90;;;2.95;;
21761;SDS011;11203;50.870;20.682;2023-04-15T10:01:33;6.28;;;3.40;;
21761;SDS011;11203;50.870;20.682;2023-04-15T10:04:01;2.80;;;2.35;;
21761;SDS011;11203;50.870;20.682;2023-04-15T10:06:29;2.80;;;2.03;;
21761;SDS011;11203;50.870;20.682;2023-04-15T10:08:56;2.30;;;2.10;;
21761;SDS011;11203;50.870;20.682;2023-04-15T10:11:27;5.82;;;2.60;;
21761;SDS011;11203;50.870;20.682;2023-04-15T10:13:54;2.85;;;2.13;;
21761;SDS011;11203;50.870;20.682;2023-04-15T10:16:21;2.60;;;2.40;;
21761;SDS011;11203;50.870;20.682;2023-04-15T10:18:55;5.38;;;2.90;;
21761;SDS011;11203;50.870;20.682;2023-04-15T10:21:25;6.43;;;2.60;;
21761;SDS011;11203;50.870;20.682;2023-04-15T10:23:55;3.80;;;2.72;;
21761;SDS011;11203;50.870;20.682;2023-04-15T10:26:22;3.33;;;2.60;;
21761;SDS011;11203;50.870;20.682;2023-04-15T10:28:49;2.45;;;2.25;;
21761;SDS011;11203;50.870;20.682;2023-04-15T10:31:17;4.88;;;2.53;;
21761;SDS011;11203;50.870;20.682;2023-04-15T10:33:44;6.78;;;3.15;;
21761;SDS011;11203;50.870;20.682;2023-04-15T10:36:12;3.78;;;3.47;;
21761;SDS011;11203;50.870;20.682;2023-04-15T10:38:43;4.05;;;3.58;;
21761;SDS011;11203;50.870;20.682;2023-04-15T10:46:38;3.50;;;2.95;;
21761;SDS011;11203;50.870;20.682;2023-04-15T10:49:11;2.83;;;2.30;;
21761;SDS011;11203;50.870;20.682;2023-04-15T10:51:41;3.75;;;2.40;;
21761;SDS011;11203;50.870;20.682;2023-04-15T10:56:52;5.65;;;3.53;;
21761;SDS011;11203;50.870;20.682;2023-04-15T10:59:32;3.65;;;2.08;;
21761;SDS011;11203;50.870;20.682;2023-04-15T11:02:04;6.90;;;3.90;;
21761;SDS011;11203;50.870;20.682;2023-04-15T11:10:03;9.55;;;7.90;;
21761;SDS011;11203;50.870;20.682;2023-04-15T11:13:06;3.30;;;2.67;;
21761;SDS011;11203;50.870;20.682;2023-04-15T11:15:45;4.53;;;2.47;;
21761;SDS011;11203;50.870;20.682;2023-04-15T11:20:47;40.40;;;21.48;;
21761;SDS011;11203;50.870;20.682;2023-04-15T11:23:25;31.42;;;18.77;;
21761;SDS011;11203;50.870;20.682;2023-04-15T11:25:54;4.45;;;2.90;;
21761;SDS011;11203;50.870;20.682;2023-04-15T11:28:24;42.38;;;25.95;;
21761;SDS011;11203;50.870;20.682;2023-04-15T11:30:52;61.22;;;33.05;;
21761;SDS011;11203;50.870;20.682;2023-04-15T11:33:20;81.15;;;33.60;;
21761;SDS011;11203;50.870;20.682;2023-04-15T11:35:48;28.10;;;12.30;;
21761;SDS011;11203;50.870;20.682;2023-04-15T11:38:15;2.88;;;2.42;;
21761;SDS011;11203;50.870;20.682;2023-04-15T11:40:41;10.75;;;5.22;;
21761;SDS011;11203;50.870;20.682;2023-04-15T11:43:15;45.05;;;33.40;;
21761;SDS011;11203;50.870;20.682;2023-04-15T11:48:31;4.03;;;2.88;;
21761;SDS011;11203;50.870;20.682;2023-04-15T11:51:00;7.55;;;4.03;;
21761;SDS011;11203;50.870;20.682;2023-04-15T11:56:09;13.27;;;6.93;;
21761;SDS011;11203;50.870;20.682;2023-04-15T11:58:42;10.68;;;6.97;;
21761;SDS011;11203;50.870;20.682;2023-04-15T12:01:10;6.47;;;2.55;;
21761;SDS011;11203;50.870;20.682;2023-04-15T12:03:38;6.88;;;5.43;;
21761;SDS011;11203;50.870;20.682;2023-04-15T12:13:54;37.33;;;7.07;;
21761;SDS011;11203;50.870;20.682;2023-04-15T12:16:36;15.85;;;4.18;;
21761;SDS011;11203;50.870;20.682;2023-04-15T12:19:11;29.77;;;5.40;;
21761;SDS011;11203;50.870;20.682;2023-04-15T12:21:40;37.40;;;7.05;;
21761;SDS011;11203;50.870;20.682;2023-04-15T12:24:10;67.50;;;9.63;;
21761;SDS011;11203;50.870;20.682;2023-04-15T12:26:42;38.28;;;7.45;;
21761;SDS011;11203;50.870;20.682;2023-04-15T12:29:11;29.15;;;8.48;;
21761;SDS011;11203;50.870;20.682;2023-04-15T12:31:52;9.90;;;4.05;;
21761;SDS011;11203;50.870;20.682;2023-04-15T12:37:04;4.13;;;2.30;;
21761;SDS011;11203;50.870;20.682;2023-04-15T12:39:38;11.20;;;8.82;;
21761;SDS011;11203;50.870;20.682;2023-04-15T12:42:10;6.45;;;4.22;;
21761;SDS011;11203;50.870;20.682;2023-04-15T12:44:37;7.70;;;6.50;;
21761;SDS011;11203;50.870;20.682;2023-04-15T12:47:03;8.23;;;5.80;;
21761;SDS011;11203;50.870;20.682;2023-04-15T12:49:30;9.00;;;6.43;;
21761;SDS011;11203;50.870;20.682;2023-04-15T12:51:57;3.75;;;3.00;;
21761;SDS011;11203;50.870;20.682;2023-04-15T12:54:24;5.13;;;3.45;;
21761;SDS011;11203;50.870;20.682;2023-04-15T12:56:52;4.88;;;3.33;;
21761;SDS011;11203;50.870;20.682;2023-04-15T12:59:19;5.88;;;3.80;;
21761;SDS011;11203;50.870;20.682;2023-04-15T13:01:46;9.77;;;4.18;;
21761;SDS011;11203;50.870;20.682;2023-04-15T13:04:13;6.20;;;4.90;;
21761;SDS011;11203;50.870;20.682;2023-04-15T13:06:40;6.00;;;3.45;;
21761;SDS011;11203;50.870;20.682;2023-04-15T13:09:07;6.07;;;4.60;;
21761;SDS011;11203;50.870;20.682;2023-04-15T13:11:33;3.88;;;2.50;;
21761;SDS011;11203;50.870;20.682;2023-04-15T13:14:01;7.05;;;2.72;;
21761;SDS011;11203;50.870;20.682;2023-04-15T13:16:32;4.53;;;2.53;;
21761;SDS011;11203;50.870;20.682;2023-04-15T13:18:58;2.83;;;2.58;;
21761;SDS011;11203;50.870;20.682;2023-04-15T13:21:26;6.07;;;4.15;;
21761;SDS011;11203;50.870;20.682;2023-04-15T13:23:52;6.00;;;4.20;;
21761;SDS011;11203;50.870;20.682;2023-04-15T13:26:19;5.10;;;4.25;;
21761;SDS011;11203;50.870;20.682;2023-04-15T13:28:45;8.05;;;5.35;;
21761;SDS011;11203;50.870;20.682;2023-04-15T13:31:11;7.35;;;6.00;;
21761;SDS011;11203;50.870;20.682;2023-04-15T13:33:37;5.80;;;4.85;;
21761;SDS011;11203;50.870;20.682;2023-04-15T13:36:04;11.63;;;5.60;;
21761;SDS011;11203;50.870;20.682;2023-04-15T13:38:31;6.38;;;4.00;;
21761;SDS011;11203;50.870;20.682;2023-04-15T13:40:57;3.90;;;3.10;;
21761;SDS011;11203;50.870;20.682;2023-04-15T13:43:23;4.97;;;3.47;;
21761;SDS011;11203;50.870;20.682;2023-04-15T13:45:49;4.63;;;3.20;;
21761;SDS011;11203;50.870;20.682;2023-04-15T13:48:15;6.07;;;3.53;;
21761;SDS011;11203;50.870;20.682;2023-04-15T13:50:42;9.95;;;7.50;;
21761;SDS011;11203;50.870;20.682;2023-04-15T13:53:10;6.57;;;5.90;;
21761;SDS011;11203;50.870;20.682;2023-04-15T13:55:37;7.32;;;5.50;;
21761;SDS011;11203;50.870;20.682;2023-04-15T13:58:07;5.85;;;4.88;;
21761;SDS011;11203;50.870;20.682;2023-04-15T14:00:34;6.13;;;4.63;;
21761;SDS011;11203;50.870;20.682;2023-04-15T14:03:00;4.55;;;3.85;;
21761;SDS011;11203;50.870;20.682;2023-04-15T14:05:26;6.47;;;5.00;;
21761;SDS011;11203;50.870;20.682;2023-04-15T14:07:52;6.78;;;5.45;;
21761;SDS011;11203;50.870;20.682;2023-04-15T14:10:19;10.43;;;4.05;;
21761;SDS011;11203;50.870;20.682;2023-04-15T14:12:45;9.07;;;6.10;;
21761;SDS011;11203;50.870;20.682;2023-04-15T14:15:11;4.65;;;3.63;;
21761;SDS011;11203;50.870;20.682;2023-04-15T14:17:37;5.30;;;3.88;;
21761;SDS011;11203;50.870;20.682;2023-04-15T14:20:05;12.40;;;7.93;;
21761;SDS011;11203;50.870;20.682;2023-04-15T14:22:32;8.85;;;6.20;;
21761;SDS011;11203;50.870;20.682;2023-04-15T14:24:58;5.55;;;4.40;;
21761;SDS011;11203;50.870;20.682;2023-04-15T14:27:25;6.88;;;4.50;;
21761;SDS011;11203;50.870;20.682;2023-04-15T14:29:51;7.57;;;4.32;;
21761;SDS011;11203;50.870;20.682;2023-04-15T14:32:18;10.00;;;7.43;;
21761;SDS011;11203;50.870;20.682;2023-04-15T14:34:45;6.30;;;2.97;;
21761;SDS011;11203;50.870;20.682;2023-04-15T14:37:11;9.65;;;7.13;;
21761;SDS011;11203;50.870;20.682;2023-04-15T14:39:37;4.57;;;3.65;;
21761;SDS011;11203;50.870;20.682;2023-04-15T14:42:04;7.05;;;3.80;;
21761;SDS011;11203;50.870;20.682;2023-04-15T14:44:30;4.82;;;4.20;;
21761;SDS011;11203;50.870;20.682;2023-04-15T14:46:56;4.78;;;4.22;;
21761;SDS011;11203;50.870;20.682;2023-04-15T14:49:22;5.60;;;4.50;;
21761;SDS011;11203;50.870;20.682;2023-04-15T14:51:48;4.45;;;4.05;;
21761;SDS011;11203;50.870;20.682;2023-04-15T14:54:15;9.50;;;6.82;;
21761;SDS011;11203;50.870;20.682;2023-04-15T14:56:41;7.25;;;5.97;;
21761;SDS011;11203;50.870;20.682;2023-04-15T14:59:07;8.10;;;6.43;;
21761;SDS011;11203;50.870;20.682;2023-04-15T15:01:33;6.43;;;5.22;;